NCAR-RAP Real-Time Weather Data

Output produced by METARs form (23 June 2018  16:12 UTC)
found at http://weather.rap.ucar.edu/surface/
 
Conditions at: KMLB observed 23 June 2018  15:00 UTC
Temperature: 31.1°C (88°F)
Dewpoint: 24.4°C (76°F) [RH = 68%]
Pressure (altimeter): 30.03 inches Hg (1017.0 mb)
Winds: from the W (280 degrees) at 8 MPH (7 knots; 3.6 m/s)
Visibility: 10 or more miles (16+ km)
Ceiling: 2100 feet AGL
Clouds: broken clouds at 2100 feet AGL
Present Weather: no significant weather observed at this time
KMLB 231500Z 28007KT 10SM BKN021 31/24 A3003 RMK AO2 T03110244

Conditions at: KMLB observed 23 June 2018  14:53 UTC
Temperature: 31.1°C (88°F)
Dewpoint: 24.4°C (76°F) [RH = 68%]
Pressure (altimeter): 30.02 inches Hg (1016.7 mb)
[Sea-level pressure: 1016.5 mb]
Winds: from the NW (310 degrees) at 6 MPH (5 knots; 2.6 m/s)
Visibility: 10 or more miles (16+ km)
Ceiling: at least 12,000 feet AGL
Clouds: scattered clouds at 2100 feet AGL
Present Weather: no significant weather observed at this time
KMLB 231453Z 31005KT 10SM SCT021 31/24 A3002 RMK AO2 SLP165 T03110244 51005

Conditions at: KMLB observed 23 June 2018  13:53 UTC
Temperature: 28.9°C (84°F)
Dewpoint: 24.4°C (76°F) [RH = 77%]
Pressure (altimeter): 30.01 inches Hg (1016.3 mb)
[Sea-level pressure: 1016.3 mb]
Winds: from the WNW (290 degrees) at 8 MPH (7 knots; 3.6 m/s)
Visibility: 10 or more miles (16+ km)
Ceiling: at least 12,000 feet AGL
Clouds: scattered clouds at 1500 feet AGL
Present Weather: no significant weather observed at this time
KMLB 231353Z 29007KT 10SM SCT015 29/24 A3001 RMK AO2 SLP163 T02890244

Conditions at: KMLB observed 23 June 2018  12:53 UTC
Temperature: 27.8°C (82°F)
Dewpoint: 25.0°C (77°F) [RH = 85%]
Pressure (altimeter): 30.02 inches Hg (1016.7 mb)
[Sea-level pressure: 1016.4 mb]
Winds: from the W (260 degrees) at 5 MPH (4 knots; 2.1 m/s)
Visibility: 10 or more miles (16+ km)
Ceiling: at least 12,000 feet AGL
Clouds: sky clear below 12,000 feet AGL
Present Weather: no significant weather observed at this time
KMLB 231253Z 26004KT 10SM CLR 28/25 A3002 RMK AO2 SLP164 T02780250

Conditions at: KMLB observed 23 June 2018  11:53 UTC
Temperature: 26.1°C (79°F)
Dewpoint: 23.9°C (75°F) [RH = 88%]
Pressure (altimeter): 30.01 inches Hg (1016.3 mb)
[Sea-level pressure: 1016.0 mb]
Winds: from the W (280 degrees) at 6 MPH (5 knots; 2.6 m/s)
Visibility: 9 miles (14 km)
Ceiling: at least 12,000 feet AGL
Clouds: sky clear below 12,000 feet AGL
Present Weather: no significant weather observed at this time
KMLB 231153Z 28005KT 9SM CLR 26/24 A3001 RMK AO2 SLP160 70028 T02610239 10261 20256 53015

Conditions at: KMLB observed 23 June 2018  10:53 UTC
Temperature: 25.6°C (78°F)
Dewpoint: 23.9°C (75°F) [RH = 90%]
Pressure (altimeter): 29.98 inches Hg (1015.3 mb)
[Sea-level pressure: 1015.2 mb]
Winds: from the WSW (250 degrees) at 3 MPH (3 knots; 1.6 m/s)
Visibility: 10 or more miles (16+ km)
Ceiling: at least 12,000 feet AGL
Clouds: sky clear below 12,000 feet AGL
Present Weather: no significant weather observed at this time
KMLB 231053Z 25003KT 10SM CLR 26/24 A2998 RMK AO2 SLP152 T02560239

Conditions at: KMLB observed 23 June 2018  10:24 UTC
Temperature: 25.6°C (78°F)
Dewpoint: 23.3°C (74°F) [RH = 87%]
Pressure (altimeter): 29.97 inches Hg (1015.0 mb)
Winds: from the SW (230 degrees) at 3 MPH (3 knots; 1.6 m/s)
Visibility: 10 or more miles (16+ km)
Ceiling: at least 12,000 feet AGL
Clouds: few clouds at 300 feet AGL
Present Weather: no significant weather observed at this time
KMLB 231024Z 23003KT 10SM FEW003 26/23 A2997 RMK AO2 T02560233

Conditions at: KMLB observed 23 June 2018  09:53 UTC
Temperature: 25.6°C (78°F)
Dewpoint: 23.3°C (74°F) [RH = 87%]
Pressure (altimeter): 29.97 inches Hg (1015.0 mb)
[Sea-level pressure: 1014.8 mb]
Winds: from the SW (220 degrees) at 6 MPH (5 knots; 2.6 m/s)
Visibility: 10 or more miles (16+ km)
Ceiling: at least 12,000 feet AGL
Clouds: sky clear below 12,000 feet AGL
Present Weather: no significant weather observed at this time
KMLB 230953Z 22005KT 10SM CLR 26/23 A2997 RMK AO2 SLP148 T02560233

Conditions at: KMLB observed 23 June 2018  08:53 UTC
Temperature: 25.6°C (78°F)
Dewpoint: 23.3°C (74°F) [RH = 87%]
Pressure (altimeter): 29.96 inches Hg (1014.6 mb)
[Sea-level pressure: 1014.5 mb]
Winds: from the SW (230 degrees) at 6 MPH (5 knots; 2.6 m/s)
Visibility: 10 or more miles (16+ km)
Ceiling: at least 12,000 feet AGL
Clouds: sky clear below 12,000 feet AGL
Present Weather: automated observation with no human augmentation;
there may or may not be significant weather present at this time
KMLB 230853Z AUTO 23005KT 10SM CLR 26/23 A2996 RMK AO2 SLP145 T02560233 56008

Conditions at: KMLB observed 23 June 2018  07:53 UTC
Temperature: 26.1°C (79°F)
Dewpoint: 23.3°C (74°F) [RH = 85%]
Pressure (altimeter): 29.96 inches Hg (1014.6 mb)
[Sea-level pressure: 1014.6 mb]
Winds: from the SW (230 degrees) at 6 MPH (5 knots; 2.6 m/s)
Visibility: 10 or more miles (16+ km)
Ceiling: at least 12,000 feet AGL
Clouds: sky clear below 12,000 feet AGL
Present Weather: automated observation with no human augmentation;
there may or may not be significant weather present at this time
KMLB 230753Z AUTO 23005KT 10SM CLR 26/23 A2996 RMK AO2 SLP146 T02610233

Conditions at: KMLB observed 23 June 2018  06:53 UTC
Temperature: 26.1°C (79°F)
Dewpoint: 23.9°C (75°F) [RH = 88%]
Pressure (altimeter): 29.98 inches Hg (1015.3 mb)
[Sea-level pressure: 1015.0 mb]
Winds: from the SSW (210 degrees) at 7 MPH (6 knots; 3.1 m/s)
Visibility: 10 or more miles (16+ km)
Ceiling: at least 12,000 feet AGL
Clouds: sky clear below 12,000 feet AGL
Present Weather: automated observation with no human augmentation;
there may or may not be significant weather present at this time
KMLB 230653Z AUTO 21006KT 10SM CLR 26/24 A2998 RMK AO2 SLP150 T02610239

Conditions at: KMLB observed 23 June 2018  05:53 UTC
Temperature: 26.1°C (79°F)
Dewpoint: 23.9°C (75°F) [RH = 88%]
Pressure (altimeter): 29.99 inches Hg (1015.7 mb)
[Sea-level pressure: 1015.4 mb]
Winds: from the SW (220 degrees) at 5 MPH (4 knots; 2.1 m/s)
Visibility: 10 or more miles (16+ km)
Ceiling: at least 12,000 feet AGL
Clouds: sky clear below 12,000 feet AGL
Present Weather: automated observation with no human augmentation;
there may or may not be significant weather present at this time
KMLB 230553Z AUTO 22004KT 10SM CLR 26/24 A2999 RMK AO2 SLP154 60001 T02610239 10267 20261 50001

Conditions at: KMLB observed 23 June 2018  04:53 UTC
Temperature: 26.1°C (79°F)
Dewpoint: 23.9°C (75°F) [RH = 88%]
Pressure (altimeter): 30.00 inches Hg (1016.0 mb)
[Sea-level pressure: 1015.6 mb]
Winds: from the SSW (210 degrees) at 5 MPH (4 knots; 2.1 m/s)
Visibility: 10 or more miles (16+ km)
Ceiling: 5500 feet AGL
Clouds: scattered clouds at 4600 feet AGL
broken clouds at 5500 feet AGL
Present Weather: automated observation with no human augmentation;
there may or may not be significant weather present at this time
KMLB 230453Z AUTO 21004KT 10SM SCT046 BKN055 26/24 A3000 RMK AO2 SLP156 T02610239 403440250

Conditions at: KMLB observed 23 June 2018  03:53 UTC
Temperature: 26.1°C (79°F)
Dewpoint: 23.9°C (75°F) [RH = 88%]
Pressure (altimeter): 29.99 inches Hg (1015.7 mb)
[Sea-level pressure: 1015.6 mb]
Winds: from the S (180 degrees) at 5 MPH (4 knots; 2.1 m/s)
Visibility: 10 or more miles (16+ km)
Ceiling: 4900 feet AGL
Clouds: broken clouds at 4900 feet AGL
Present Weather: automated observation with no human augmentation;
there may or may not be significant weather present at this time
KMLB 230353Z AUTO 18004KT 10SM BKN049 26/24 A2999 RMK AO2 SLP156 T02610239

Conditions at: KMLB observed 23 June 2018  02:53 UTC
Temperature: 26.1°C (79°F)
Dewpoint: 23.9°C (75°F) [RH = 88%]
Pressure (altimeter): 29.98 inches Hg (1015.3 mb)
[Sea-level pressure: 1015.2 mb]
Winds: from the S (180 degrees) at 6 MPH (5 knots; 2.6 m/s)
Visibility: 10 or more miles (16+ km)
Ceiling: at least 12,000 feet AGL
Clouds: sky clear below 12,000 feet AGL
Present Weather: no significant weather observed at this time
KMLB 230253Z 18005KT 10SM CLR 26/24 A2998 RMK AO2 SLP152 60001 T02610239 53007

Conditions at: KMLB observed 23 June 2018  01:53 UTC
Temperature: 26.1°C (79°F)
Dewpoint: 23.9°C (75°F) [RH = 88%]
Pressure (altimeter): 29.97 inches Hg (1015.0 mb)
[Sea-level pressure: 1014.8 mb]
Winds: from the S (170 degrees) at 6 MPH (5 knots; 2.6 m/s)
Visibility: 10 or more miles (16+ km)
Ceiling: at least 12,000 feet AGL
Clouds: sky clear below 12,000 feet AGL
Present Weather: no significant weather observed at this time
KMLB 230153Z 17005KT 10SM CLR 26/24 A2997 RMK AO2 RAE16 SLP148 P0000 T02610239

Conditions at: KMLB observed 23 June 2018  00:53 UTC
Temperature: 26.1°C (79°F)
Dewpoint: 23.9°C (75°F) [RH = 88%]
Pressure (altimeter): 29.96 inches Hg (1014.6 mb)
[Sea-level pressure: 1014.5 mb]
Winds: from the S (180 degrees) at 5 MPH (4 knots; 2.1 m/s)
Visibility: 10 or more miles (16+ km)
Ceiling: at least 12,000 feet AGL
Clouds: few clouds at 7000 feet AGL
few clouds at 10000 feet AGL
Present Weather: -RA  (light rain)
KMLB 230053Z 18004KT 10SM -RA FEW070 FEW100 26/24 A2996 RMK AO2 LTG DSNT SW SLP145 P0001 T02610239

Conditions at: KMLB observed 22 June 2018  23:53 UTC
Temperature: 26.1°C (79°F)
Dewpoint: 23.9°C (75°F) [RH = 88%]
Pressure (altimeter): 29.96 inches Hg (1014.6 mb)
[Sea-level pressure: 1014.5 mb]
Winds: from the WSW (250 degrees) at 5 MPH (4 knots; 2.1 m/s)
Visibility: 8 miles (13 km)
Ceiling: at least 12,000 feet AGL
Clouds: few clouds at 11000 feet AGL
Present Weather: -RA  (light rain)
KMLB 222353Z 25004KT 8SM -RA FEW110 26/24 A2996 RMK AO2 LTG DSNT SW SLP145 P0008 60027 T02610239 10344 20256 51015

Conditions at: KMLB observed 22 June 2018  23:17 UTC
Temperature: 26.1°C (79°F)
Dewpoint: 23.3°C (74°F) [RH = 85%]
Pressure (altimeter): 29.98 inches Hg (1015.3 mb)
Winds: from the W (270 degrees) at 12 MPH (10 knots; 5.2 m/s)
Visibility: 5 miles (8 km)
Ceiling: at least 12,000 feet AGL
Clouds: few clouds at 4900 feet AGL
scattered clouds at 11000 feet AGL
Present Weather: VCTS RA  (thunderstorm in vicinity, rain)
KMLB 222317Z 27010KT 5SM VCTS RA FEW049 SCT110 26/23 A2998 RMK AO2 LTG DSNT W-N PRESRR P0005 T02610233

Conditions at: KMLB observed 22 June 2018  23:13 UTC
Temperature: 26.1°C (79°F)
Dewpoint: 23.3°C (74°F) [RH = 85%]
Pressure (altimeter): 29.97 inches Hg (1015.0 mb)
Winds: from the WSW (250 degrees) at 6 MPH (5 knots; 2.6 m/s)
Visibility: 2.50 miles (4.02 km)
Ceiling: at least 12,000 feet AGL
Clouds: scattered clouds at 11000 feet AGL
Present Weather: RA  (rain)
KMLB 222313Z 25005KT 2 1/2SM RA SCT110 26/23 A2997 RMK AO2 LTG DSNT W-N PRESRR P0004 T02610233

Conditions at: KMLB observed 22 June 2018  22:53 UTC
Temperature: 26.1°C (79°F)
Dewpoint: 23.3°C (74°F) [RH = 85%]
Pressure (altimeter): 29.95 inches Hg (1014.3 mb)
[Sea-level pressure: 1014.1 mb]
Winds: calm
Visibility: 4 miles (6 km)
Ceiling: at least 12,000 feet AGL
Clouds: few clouds at 12000 feet AGL
Present Weather: -RA  (light rain)
KMLB 222253Z 00000KT 4SM -RA FEW120 26/23 A2995 RMK AO2 LTG DSNT W-N TSE19 SLP141 P0012 T02610233

Conditions at: KMLB observed 22 June 2018  22:19 UTC
Temperature: 25.6°C (78°F)
Dewpoint: 22.8°C (73°F) [RH = 85%]
Pressure (altimeter): 29.95 inches Hg (1014.3 mb)
Winds: from the E (90 degrees) at 7 MPH (6 knots; 3.1 m/s)
Visibility: 5 miles (8 km)
Ceiling: 9000 feet AGL
Clouds: few clouds at 5000 feet AGL
broken clouds at 9000 feet AGL
overcast cloud deck at 11000 feet AGL
Present Weather: -RA  (light rain)
KMLB 222219Z 09006KT 5SM -RA FEW050 BKN090 OVC110 26/23 A2995 RMK AO2 LTG DSNT ALQDS TSE19 P0011 T02560228

Conditions at: KMLB observed 22 June 2018  22:00 UTC
Temperature: 25.6°C (78°F)
Dewpoint: 22.2°C (72°F) [RH = 82%]
Pressure (altimeter): 29.96 inches Hg (1014.6 mb)
Winds: variable direction winds at 6 MPH (5 knots; 2.6 m/s)
Visibility: 2.00 miles (3.22 km)
Ceiling: 8500 feet AGL
Clouds: few clouds at 4800 feet AGL
broken clouds at 8500 feet AGL
overcast cloud deck at 10000 feet AGL
Present Weather: TSRA  (rain associated with thunderstorm(s))
KMLB 222200Z VRB05KT 2SM R09R/4500VP6000FT TSRA FEW048 BKN085 OVC100 26/22 A2996 RMK AO2 LTG DSNT ALQDS P0002 T02560222

Conditions at: KMLB observed 22 June 2018  21:53 UTC
Temperature: 25.6°C (78°F)
Dewpoint: 22.2°C (72°F) [RH = 82%]
Pressure (altimeter): 29.96 inches Hg (1014.6 mb)
[Sea-level pressure: 1014.3 mb]
Winds: from the SW (230 degrees) at 9 MPH (8 knots; 4.2 m/s)
Visibility: 3 miles (5 km)
Ceiling: 6500 feet AGL
Clouds: few clouds at 3300 feet AGL
broken clouds at 6500 feet AGL
overcast cloud deck at 8000 feet AGL
Present Weather: -TSRA  (light rain associated with thunderstorm(s))
KMLB 222153Z 23008KT 3SM R09R/5000VP6000FT -TSRA FEW033 BKN065 OVC080 26/22 A2996 RMK AO2 PK WND 23030/2129 WSHFT 2111 LTG DSNT ALQDS RAB31 SLP143 TS W-NW LTGICCCCG P0007 T02560222

Conditions at: KMLB observed 22 June 2018  21:25 UTC
Temperature: 27.8°C (82°F)
Dewpoint: 21.7°C (71°F) [RH = 69%]
Pressure (altimeter): 29.95 inches Hg (1014.3 mb)
Winds: from the SW (230 degrees) at 22 MPH (19 knots; 9.9 m/s)
gusting to 28 MPH (24 knots; 12.5 m/s)
Visibility: 10 or more miles (16+ km)
Ceiling: 3700 feet AGL
Clouds: few clouds at 2500 feet AGL
broken clouds at 3700 feet AGL
Present Weather: TS  (thunderstorm)
KMLB 222125Z 23019G24KT 10SM TS FEW025 BKN037 28/22 A2995 RMK AO2 WSHFT 2111 LTG DSNT ALQDS TS SE-NW LTGICCCCG T02780217

Conditions at: KMLB observed 22 June 2018  21:18 UTC
Temperature: 30.0°C (86°F)
Dewpoint: 23.3°C (74°F) [RH = 67%]
Pressure (altimeter): 29.95 inches Hg (1014.3 mb)
Winds: from the SW (220 degrees) at 20 MPH (17 knots; 8.8 m/s)
gusting to 28 MPH (24 knots; 12.5 m/s)
Visibility: 2.00 miles (3.22 km)
Ceiling: 10000 feet AGL
Clouds: scattered clouds at 3000 feet AGL
broken clouds at 10000 feet AGL
Present Weather: TS HZ  (thunderstorm, haze)
KMLB 222118Z 22017G24KT 2SM TS HZ SCT030 BKN100 30/23 A2995 RMK AO2 WSHFT 2104 LTG DSNT S-NW PRESRR TS SE-NW LTGICCCCG T03000233

Conditions at: KMLB observed 22 June 2018  20:53 UTC
Temperature: 31.1°C (88°F)
Dewpoint: 23.3°C (74°F) [RH = 63%]
Pressure (altimeter): 29.92 inches Hg (1013.3 mb)
[Sea-level pressure: 1013.0 mb]
Winds: from the SE (140 degrees) at 13 MPH (11 knots; 5.7 m/s)
Visibility: 10 or more miles (16+ km)
Ceiling: 10000 feet AGL
Clouds: scattered clouds at 3000 feet AGL
broken clouds at 10000 feet AGL
Present Weather: TS  (thunderstorm)
KMLB 222053Z 14011KT 10SM TS SCT030 BKN100 31/23 A2992 RMK AO2 LTG DSNT SE-W TSB53 SLP130 T03110233 55008

Conditions at: KMLB observed 22 June 2018  20:50 UTC
Temperature: 31.0°C (88°F)
Dewpoint: 23.0°C (73°F) [RH = 63%]
Pressure (altimeter): 29.92 inches Hg (1013.3 mb)
Winds: from the SE (130 degrees) at 15 MPH (13 knots; 6.8 m/s)
Visibility: 10 or more miles (16+ km)
Ceiling: 10000 feet AGL
Clouds: scattered clouds at 3000 feet AGL
broken clouds at 10000 feet AGL
Present Weather: VCTS  (thunderstorm in vicinity)
KMLB 222050Z 13013KT 10SM VCTS SCT030 BKN100 31/23 A2992 RMK AO2 LTG DSNT SE-W

Conditions at: KMLB observed 22 June 2018  19:53 UTC
Temperature: 32.2°C (90°F)
Dewpoint: 24.4°C (76°F) [RH = 64%]
Pressure (altimeter): 29.93 inches Hg (1013.6 mb)
[Sea-level pressure: 1013.5 mb]
Winds: from the ESE (110 degrees) at 14 MPH (12 knots; 6.2 m/s)
Visibility: 10 or more miles (16+ km)
Ceiling: 12000 feet AGL
Clouds: few clouds at 4500 feet AGL
scattered clouds at 7000 feet AGL
broken clouds at 12000 feet AGL
Present Weather: no significant weather observed at this time
KMLB 221953Z 11012KT 10SM FEW045 SCT070 BKN120 32/24 A2993 RMK AO2 LTG DSNT S AND SW SLP135 T03220244

Conditions at: KMLB observed 22 June 2018  18:53 UTC
Temperature: 33.9°C (93°F)
Dewpoint: 22.8°C (73°F) [RH = 52%]
Pressure (altimeter): 29.94 inches Hg (1014.0 mb)
[Sea-level pressure: 1013.8 mb]
Winds: from the S (180 degrees) at 5 MPH (4 knots; 2.1 m/s)
Visibility: 10 or more miles (16+ km)
Ceiling: at least 12,000 feet AGL
Clouds: few clouds at 4600 feet AGL
scattered clouds at 5500 feet AGL
Present Weather: no significant weather observed at this time
KMLB 221853Z 18004KT 10SM FEW046 SCT055 34/23 A2994 RMK AO2 SLP138 T03390228

Conditions at: KMLB observed 22 June 2018  17:53 UTC
Temperature: 33.9°C (93°F)
Dewpoint: 23.3°C (74°F) [RH = 54%]
Pressure (altimeter): 29.96 inches Hg (1014.6 mb)
[Sea-level pressure: 1014.5 mb]
Winds: from the NW (310 degrees) at 6 MPH (5 knots; 2.6 m/s)
Visibility: 10 or more miles (16+ km)
Ceiling: at least 12,000 feet AGL
Clouds: scattered clouds at 4200 feet AGL
Present Weather: no significant weather observed at this time
KMLB 221753Z 31005KT 10SM SCT042 34/23 A2996 RMK AO2 SLP145 T03390233 10344 20267 58010

Conditions at: KMLB observed 22 June 2018  16:53 UTC
Temperature: 33.3°C (92°F)
Dewpoint: 22.8°C (73°F) [RH = 54%]
Pressure (altimeter): 29.98 inches Hg (1015.3 mb)
[Sea-level pressure: 1015.0 mb]
Winds: from the W (280 degrees) at 6 MPH (5 knots; 2.6 m/s)
Visibility: 10 or more miles (16+ km)
Ceiling: at least 12,000 feet AGL
Clouds: scattered clouds at 3600 feet AGL
Present Weather: no significant weather observed at this time
KMLB 221653Z 28005KT 10SM SCT036 33/23 A2998 RMK AO2 SLP150 T03330228

Conditions at: KMLB observed 22 June 2018  15:53 UTC
Temperature: 32.8°C (91°F)
Dewpoint: 23.9°C (75°F) [RH = 60%]
Pressure (altimeter): 29.99 inches Hg (1015.7 mb)
[Sea-level pressure: 1015.4 mb]
Winds: from the WNW (300 degrees) at 9 MPH (8 knots; 4.2 m/s)
Visibility: 10 or more miles (16+ km)
Ceiling: at least 12,000 feet AGL
Clouds: sky clear below 12,000 feet AGL
Present Weather: no significant weather observed at this time
KMLB 221553Z 30008KT 10SM CLR 33/24 A2999 RMK AO2 SLP154 T03280239

Conditions at: KMLB observed 22 June 2018  14:53 UTC
Temperature: 31.7°C (89°F)
Dewpoint: 23.9°C (75°F) [RH = 63%]
Pressure (altimeter): 29.99 inches Hg (1015.7 mb)
[Sea-level pressure: 1015.5 mb]
Winds: from the WNW (290 degrees) at 14 MPH (12 knots; 6.2 m/s)
Visibility: 10 or more miles (16+ km)
Ceiling: at least 12,000 feet AGL
Clouds: scattered clouds at 2100 feet AGL
Present Weather: no significant weather observed at this time
KMLB 221453Z 29012KT 10SM SCT021 32/24 A2999 RMK AO2 SLP155 T03170239 50005

Conditions at: KMLB observed 22 June 2018  13:53 UTC
Temperature: 30.0°C (86°F)
Dewpoint: 24.4°C (76°F) [RH = 72%]
Pressure (altimeter): 29.99 inches Hg (1015.7 mb)
[Sea-level pressure: 1015.6 mb]
Winds: from the W (280 degrees) at 10 MPH (9 knots; 4.7 m/s)
Visibility: 10 or more miles (16+ km)
Ceiling: at least 12,000 feet AGL
Clouds: scattered clouds at 2500 feet AGL
Present Weather: no significant weather observed at this time
KMLB 221353Z 28009KT 10SM SCT025 30/24 A2999 RMK AO2 SLP156 T03000244

Conditions at: KMLB observed 22 June 2018  12:53 UTC
Temperature: 29.4°C (85°F)
Dewpoint: 24.4°C (76°F) [RH = 75%]
Pressure (altimeter): 29.98 inches Hg (1015.3 mb)
[Sea-level pressure: 1015.3 mb]
Winds: from the W (270 degrees) at 9 MPH (8 knots; 4.2 m/s)
Visibility: 10 or more miles (16+ km)
Ceiling: at least 12,000 feet AGL
Clouds: sky clear below 12,000 feet AGL
Present Weather: no significant weather observed at this time
KMLB 221253Z 27008KT 10SM CLR 29/24 A2998 RMK AO2 SLP153 T02940244

Conditions at: KMLB observed 22 June 2018  11:53 UTC
Temperature: 26.7°C (80°F)
Dewpoint: 23.9°C (75°F) [RH = 85%]
Pressure (altimeter): 29.98 inches Hg (1015.3 mb)
[Sea-level pressure: 1015.0 mb]
Winds: from the WSW (240 degrees) at 7 MPH (6 knots; 3.1 m/s)
Visibility: 10 or more miles (16+ km)
Ceiling: at least 12,000 feet AGL
Clouds: sky clear below 12,000 feet AGL
Present Weather: no significant weather observed at this time
KMLB 221153Z 24006KT 10SM CLR 27/24 A2998 RMK AO2 SLP150 70005 T02670239 10267 20250 53020

Conditions at: KMLB observed 22 June 2018  10:53 UTC
Temperature: 25.6°C (78°F)
Dewpoint: 23.3°C (74°F) [RH = 87%]
Pressure (altimeter): 29.95 inches Hg (1014.3 mb)
[Sea-level pressure: 1014.2 mb]
Winds: from the WSW (240 degrees) at 6 MPH (5 knots; 2.6 m/s)
Visibility: 8 miles (13 km)
Ceiling: at least 12,000 feet AGL
Clouds: sky clear below 12,000 feet AGL
Present Weather: no significant weather observed at this time
KMLB 221053Z 24005KT 8SM CLR 26/23 A2995 RMK AO2 SLP142 T02560233

Conditions at: KMLB observed 22 June 2018  09:53 UTC
Temperature: 25.0°C (77°F)
Dewpoint: 22.8°C (73°F) [RH = 88%]
Pressure (altimeter): 29.93 inches Hg (1013.6 mb)
[Sea-level pressure: 1013.5 mb]
Winds: from the WSW (250 degrees) at 6 MPH (5 knots; 2.6 m/s)
Visibility: 10 or more miles (16+ km)
Ceiling: at least 12,000 feet AGL
Clouds: sky clear below 12,000 feet AGL
Present Weather: no significant weather observed at this time
KMLB 220953Z 25005KT 10SM CLR 25/23 A2993 RMK AO2 SLP135 T02500228

Conditions at: KMLB observed 22 June 2018  08:53 UTC
Temperature: 25.0°C (77°F)
Dewpoint: 22.8°C (73°F) [RH = 88%]
Pressure (altimeter): 29.92 inches Hg (1013.3 mb)
[Sea-level pressure: 1013.0 mb]
Winds: from the WSW (240 degrees) at 8 MPH (7 knots; 3.6 m/s)
Visibility: 10 or more miles (16+ km)
Ceiling: at least 12,000 feet AGL
Clouds: sky clear below 12,000 feet AGL
Present Weather: automated observation with no human augmentation;
there may or may not be significant weather present at this time
KMLB 220853Z AUTO 24007KT 10SM CLR 25/23 A2992 RMK AO2 SLP130 T02500228 55007

Conditions at: KMLB observed 22 June 2018  07:53 UTC
Temperature: 25.6°C (78°F)
Dewpoint: 22.2°C (72°F) [RH = 82%]
Pressure (altimeter): 29.92 inches Hg (1013.3 mb)
[Sea-level pressure: 1012.9 mb]
Winds: from the SW (220 degrees) at 9 MPH (8 knots; 4.2 m/s)
Visibility: 10 or more miles (16+ km)
Ceiling: at least 12,000 feet AGL
Clouds: sky clear below 12,000 feet AGL
Present Weather: automated observation with no human augmentation;
there may or may not be significant weather present at this time
KMLB 220753Z AUTO 22008KT 10SM CLR 26/22 A2992 RMK AO2 SLP129 T02560222

Conditions at: KMLB observed 22 June 2018  06:53 UTC
Temperature: 25.0°C (77°F)
Dewpoint: 22.2°C (72°F) [RH = 84%]
Pressure (altimeter): 29.92 inches Hg (1013.3 mb)
[Sea-level pressure: 1013.2 mb]
Winds: from the SW (220 degrees) at 7 MPH (6 knots; 3.1 m/s)
Visibility: 10 or more miles (16+ km)
Ceiling: at least 12,000 feet AGL
Clouds: sky clear below 12,000 feet AGL
Present Weather: automated observation with no human augmentation;
there may or may not be significant weather present at this time
KMLB 220653Z AUTO 22006KT 10SM CLR 25/22 A2992 RMK AO2 SLP132 T02500222

Conditions at: KMLB observed 22 June 2018  05:53 UTC
Temperature: 25.6°C (78°F)
Dewpoint: 22.2°C (72°F) [RH = 82%]
Pressure (altimeter): 29.94 inches Hg (1014.0 mb)
[Sea-level pressure: 1013.7 mb]
Winds: from the SW (230 degrees) at 8 MPH (7 knots; 3.6 m/s)
Visibility: 10 or more miles (16+ km)
Ceiling: at least 12,000 feet AGL
Clouds: sky clear below 12,000 feet AGL
Present Weather: automated observation with no human augmentation;
there may or may not be significant weather present at this time
KMLB 220553Z AUTO 23007KT 10SM CLR 26/22 A2994 RMK AO2 SLP137 T02560222 10278 20256 58004

Conditions at: KMLB observed 22 June 2018  04:53 UTC
Temperature: 25.6°C (78°F)
Dewpoint: 22.2°C (72°F) [RH = 82%]
Pressure (altimeter): 29.96 inches Hg (1014.6 mb)
[Sea-level pressure: 1014.4 mb]
Winds: from the SW (220 degrees) at 6 MPH (5 knots; 2.6 m/s)
Visibility: 10 or more miles (16+ km)
Ceiling: at least 12,000 feet AGL
Clouds: sky clear below 12,000 feet AGL
Present Weather: automated observation with no human augmentation;
there may or may not be significant weather present at this time
KMLB 220453Z AUTO 22005KT 10SM CLR 26/22 A2996 RMK AO2 SLP144 T02560222 403440250

Conditions at: KMLB observed 22 June 2018  03:53 UTC
Temperature: 25.6°C (78°F)
Dewpoint: 22.8°C (73°F) [RH = 85%]
Pressure (altimeter): 29.96 inches Hg (1014.6 mb)
[Sea-level pressure: 1014.6 mb]
Winds: from the SSW (210 degrees) at 6 MPH (5 knots; 2.6 m/s)
Visibility: 10 or more miles (16+ km)
Ceiling: at least 12,000 feet AGL
Clouds: sky clear below 12,000 feet AGL
Present Weather: automated observation with no human augmentation;
there may or may not be significant weather present at this time
KMLB 220353Z AUTO 21005KT 10SM CLR 26/23 A2996 RMK AO2 SLP146 T02560228

Conditions at: KMLB observed 22 June 2018  02:53 UTC
Temperature: 26.1°C (79°F)
Dewpoint: 22.2°C (72°F) [RH = 79%]
Pressure (altimeter): 29.95 inches Hg (1014.3 mb)
[Sea-level pressure: 1014.1 mb]
Winds: from the WSW (240 degrees) at 6 MPH (5 knots; 2.6 m/s)
Visibility: 10 or more miles (16+ km)
Ceiling: at least 12,000 feet AGL
Clouds: sky clear below 12,000 feet AGL
Present Weather: no significant weather observed at this time
KMLB 220253Z 24005KT 10SM CLR 26/22 A2995 RMK AO2 SLP141 T02610222 53003

Conditions at: KMLB observed 22 June 2018  01:53 UTC
Temperature: 26.1°C (79°F)
Dewpoint: 22.2°C (72°F) [RH = 79%]
Pressure (altimeter): 29.94 inches Hg (1014.0 mb)
[Sea-level pressure: 1013.8 mb]
Winds: from the SW (220 degrees) at 8 MPH (7 knots; 3.6 m/s)
Visibility: 10 or more miles (16+ km)
Ceiling: at least 12,000 feet AGL
Clouds: sky clear below 12,000 feet AGL
Present Weather: no significant weather observed at this time
KMLB 220153Z 22007KT 10SM CLR 26/22 A2994 RMK AO2 SLP138 T02610222

Conditions at: KMLB observed 22 June 2018  00:53 UTC
Temperature: 26.7°C (80°F)
Dewpoint: 22.2°C (72°F) [RH = 76%]
Pressure (altimeter): 29.94 inches Hg (1014.0 mb)
[Sea-level pressure: 1013.8 mb]
Winds: from the SW (220 degrees) at 12 MPH (10 knots; 5.2 m/s)
Visibility: 10 or more miles (16+ km)
Ceiling: at least 12,000 feet AGL
Clouds: sky clear below 12,000 feet AGL
Present Weather: no significant weather observed at this time
KMLB 220053Z 22010KT 10SM CLR 27/22 A2994 RMK AO2 SLP138 T02670222

Conditions at: KMLB observed 21 June 2018  23:53 UTC
Temperature: 27.8°C (82°F)
Dewpoint: 23.3°C (74°F) [RH = 77%]
Pressure (altimeter): 29.94 inches Hg (1014.0 mb)
[Sea-level pressure: 1013.8 mb]
Winds: from the SW (220 degrees) at 12 MPH (10 knots; 5.2 m/s)
Visibility: 10 or more miles (16+ km)
Ceiling: 8500 feet AGL
Clouds: scattered clouds at 1800 feet AGL
broken clouds at 8500 feet AGL
Present Weather: no significant weather observed at this time
KMLB 212353Z 22010KT 10SM SCT018 BKN085 28/23 A2994 RMK AO2 PRESRR SLP138 60003 T02780233 10300 20250 53013

Conditions at: KMLB observed 21 June 2018  22:53 UTC
Temperature: 28.9°C (84°F)
Dewpoint: 23.3°C (74°F) [RH = 72%]
Pressure (altimeter): 29.91 inches Hg (1013.0 mb)
[Sea-level pressure: 1012.7 mb]
Winds: from the W (270 degrees) at 3 MPH (3 knots; 1.6 m/s)
Visibility: 10 or more miles (16+ km)
Ceiling: at least 12,000 feet AGL
Clouds: sky clear below 12,000 feet AGL
Present Weather: no significant weather observed at this time
KMLB 212253Z 27003KT 10SM CLR 29/23 A2991 RMK AO2 SLP127 T02890233

Conditions at: KMLB observed 21 June 2018  21:53 UTC
Temperature: 28.9°C (84°F)
Dewpoint: 23.9°C (75°F) [RH = 74%]
Pressure (altimeter): 29.90 inches Hg (1012.6 mb)
[Sea-level pressure: 1012.4 mb]
Winds: from the NW (310 degrees) at 8 MPH (7 knots; 3.6 m/s)
Visibility: 10 or more miles (16+ km)
Ceiling: at least 12,000 feet AGL
Clouds: sky clear below 12,000 feet AGL
Present Weather: no significant weather observed at this time
KMLB 212153Z 31007KT 10SM CLR 29/24 A2990 RMK AO2 SLP124 T02890239

Conditions at: KMLB observed 21 June 2018  20:53 UTC
Temperature: 27.8°C (82°F)
Dewpoint: 23.3°C (74°F) [RH = 77%]
Pressure (altimeter): 29.90 inches Hg (1012.6 mb)
[Sea-level pressure: 1012.5 mb]
Winds: from the WNW (300 degrees) at 7 MPH (6 knots; 3.1 m/s)
Visibility: 10 or more miles (16+ km)
Ceiling: at least 12,000 feet AGL
Clouds: scattered clouds at 3500 feet AGL
Present Weather: no significant weather observed at this time
KMLB 212053Z 30006KT 10SM SCT035 28/23 A2990 RMK AO2 RAB07E31 SLP125 VCSH P0000 60003 T02780233 56017

Conditions at: KMLB observed 21 June 2018  20:06 UTC
Temperature: 26.7°C (80°F)
Dewpoint: 23.9°C (75°F) [RH = 85%]
Pressure (altimeter): 29.92 inches Hg (1013.3 mb)
Winds: from the W (280 degrees) at 6 MPH (5 knots; 2.6 m/s)
Visibility: 10 or more miles (16+ km)
Ceiling: 9500 feet AGL
Clouds: scattered clouds at 600 feet AGL
scattered clouds at 7500 feet AGL
broken clouds at 9500 feet AGL
Present Weather: no significant weather observed at this time
KMLB 212006Z 28005KT 10SM SCT006 SCT075 BKN095 27/24 A2992 RMK AO2 VCSH T02670239

Conditions at: KMLB observed 21 June 2018  19:53 UTC
Temperature: 26.1°C (79°F)
Dewpoint: 23.9°C (75°F) [RH = 88%]
Pressure (altimeter): 29.91 inches Hg (1013.0 mb)
[Sea-level pressure: 1012.9 mb]
Winds: from the WNW (290 degrees) at 3 MPH (3 knots; 1.6 m/s)
Visibility: 10 or more miles (16+ km)
Ceiling: 600 feet AGL
Clouds: broken clouds at 600 feet AGL
broken clouds at 7000 feet AGL
Present Weather: no significant weather observed at this time
KMLB 211953Z 29003KT 10SM BKN006 BKN070 26/24 A2991 RMK AO2 LTG DSNT S RAE31 TSE02 SLP129 P0000 T02610239

Conditions at: KMLB observed 21 June 2018  19:48 UTC
Temperature: 26.0°C (79°F)
Dewpoint: 24.0°C (75°F) [RH = 89%]
Pressure (altimeter): 29.92 inches Hg (1013.3 mb)
Winds: from the WSW (250 degrees) at 6 MPH (5 knots; 2.6 m/s)
Visibility: 10 or more miles (16+ km)
Ceiling: 7000 feet AGL
Clouds: scattered clouds at 600 feet AGL
broken clouds at 7000 feet AGL
broken clouds at 9500 feet AGL
Present Weather: no significant weather observed at this time
KMLB 211948Z 25005KT 10SM SCT006 BKN070 BKN095 26/24 A2992 RMK AO2 LTG DSNT SE-SW RAE31 TSE02 P0000

Conditions at: KMLB observed 21 June 2018  19:05 UTC
Temperature: 25.6°C (78°F)
Dewpoint: 23.3°C (74°F) [RH = 87%]
Pressure (altimeter): 29.95 inches Hg (1014.3 mb)
Winds: from the W (280 degrees) at 13 MPH (11 knots; 5.7 m/s)
Visibility: 8 miles (13 km)
Ceiling: 12000 feet AGL
Clouds: few clouds at 6000 feet AGL
scattered clouds at 9500 feet AGL
overcast cloud deck at 12000 feet AGL
Present Weather: -RA  (light rain)
KMLB 211905Z 28011KT 8SM -RA FEW060 SCT095 OVC120 26/23 A2995 RMK AO2 LTG DSNT S-NW TSE02 P0000 T02560233

Conditions at: KMLB observed 21 June 2018  18:53 UTC
Temperature: 25.6°C (78°F)
Dewpoint: 22.8°C (73°F) [RH = 85%]
Pressure (altimeter): 29.95 inches Hg (1014.3 mb)
[Sea-level pressure: 1014.2 mb]
Winds: from the WNW (290 degrees) at 12 MPH (10 knots; 5.2 m/s)
Visibility: 4 miles (6 km)
Ceiling: 8000 feet AGL
Clouds: few clouds at 3300 feet AGL
broken clouds at 8000 feet AGL
overcast cloud deck at 10000 feet AGL
Present Weather: -TSRA  (light rain associated with thunderstorm(s))
KMLB 211853Z 29010KT 4SM R09R/4000VP6000FT -TSRA FEW033 BKN080 OVC100 26/23 A2995 RMK AO2 PK WND 33029/1757 LTG DSNT S-NW RAB02 TSB04 SLP142 P0003 T02560228

Conditions at: KMLB observed 21 June 2018  18:41 UTC
Temperature: 25.6°C (78°F)
Dewpoint: 23.3°C (74°F) [RH = 87%]
Pressure (altimeter): 29.95 inches Hg (1014.3 mb)
Winds: from the WNW (290 degrees) at 9 MPH (8 knots; 4.2 m/s)
Visibility: 2.50 miles (4.02 km)
Ceiling: 4900 feet AGL
Clouds: few clouds at 600 feet AGL
broken clouds at 4900 feet AGL
overcast cloud deck at 6500 feet AGL
Present Weather: TSRA BR  (rain associated with thunderstorm(s), mist)
KMLB 211841Z 29008KT 2 1/2SM R09R/2200VP6000FT TSRA BR FEW006 BKN049 OVC065 26/23 A2995 RMK AO2 PK WND 33029/1757 LTG DSNT SW AND W RAB02 TSB04 P0002 T02560233

Conditions at: KMLB observed 21 June 2018  18:10 UTC
Temperature: 27.8°C (82°F)
Dewpoint: 22.8°C (73°F) [RH = 74%]
Pressure (altimeter): 29.95 inches Hg (1014.3 mb)
Winds: from the NW (320 degrees) at 22 MPH (19 knots; 9.9 m/s)
gusting to 31 MPH (27 knots; 14.0 m/s)
Visibility: 10 or more miles (16+ km)
Ceiling: 3500 feet AGL
Clouds: broken clouds at 3500 feet AGL
broken clouds at 6000 feet AGL
overcast cloud deck at 9000 feet AGL
Present Weather: -TSRA  (light rain associated with thunderstorm(s))
KMLB 211810Z 32019G27KT 10SM -TSRA BKN035 BKN060 OVC090 28/23 A2995 RMK AO2 PK WND 33029/1757 LTG DSNT SW-N RAB02 TSB04 P0000 T02780228

Conditions at: KMLB observed 21 June 2018  17:53 UTC
Temperature: 30.6°C (87°F)
Dewpoint: 22.8°C (73°F) [RH = 63%]
Pressure (altimeter): 29.93 inches Hg (1013.6 mb)
[Sea-level pressure: 1013.3 mb]
Winds: from the NW (320 degrees) at 17 MPH (15 knots; 7.8 m/s)
gusting to 28 MPH (24 knots; 12.5 m/s)
Visibility: 10 or more miles (16+ km)
Ceiling: 3700 feet AGL
Clouds: few clouds at 2400 feet AGL
few clouds at 3000 feet AGL
broken clouds at 3700 feet AGL
Present Weather: VCTS  (thunderstorm in vicinity)
KMLB 211753Z 32015G24KT 10SM VCTS FEW024 FEW030 BKN037 31/23 A2993 RMK AO2 LTG DSNT W-N SLP133 60002 T03060228 10344 20278 57003

Conditions at: KMLB observed 21 June 2018  17:49 UTC
Temperature: 32.0°C (90°F)
Dewpoint: 24.0°C (75°F) [RH = 63%]
Pressure (altimeter): 29.93 inches Hg (1013.6 mb)
Winds: from the NW (320 degrees) at 16 MPH (14 knots; 7.3 m/s)
gusting to 25 MPH (22 knots; 11.4 m/s)
Visibility: 10 or more miles (16+ km)
Ceiling: 3700 feet AGL
Clouds: broken clouds at 3700 feet AGL
Present Weather: VCTS  (thunderstorm in vicinity)
KMLB 211749Z 32014G22KT 10SM VCTS BKN037 32/24 A2993 RMK AO2 LTG DSNT W-N

Conditions at: KMLB observed 21 June 2018  17:40 UTC
Temperature: 33.3°C (92°F)
Dewpoint: 24.4°C (76°F) [RH = 60%]
Pressure (altimeter): 29.92 inches Hg (1013.3 mb)
Winds: from the NW (320 degrees) at 9 MPH (8 knots; 4.2 m/s)
Visibility: 10 or more miles (16+ km)
Ceiling: at least 12,000 feet AGL
Clouds: scattered clouds at 3700 feet AGL
Present Weather: no significant weather observed at this time
KMLB 211740Z 32008KT 10SM SCT037 33/24 A2992 RMK AO2 LTG DSNT W-N T03330244

Conditions at: KMLB observed 21 June 2018  16:53 UTC
Temperature: 32.8°C (91°F)
Dewpoint: 25.6°C (78°F) [RH = 66%]
Pressure (altimeter): 29.93 inches Hg (1013.6 mb)
[Sea-level pressure: 1013.5 mb]
Winds: from the W (260 degrees) at 7 MPH (6 knots; 3.1 m/s)
Visibility: 10 or more miles (16+ km)
Ceiling: at least 12,000 feet AGL
Clouds: few clouds at 5000 feet AGL
scattered clouds at 6500 feet AGL
scattered clouds at 12000 feet AGL
Present Weather: VCTS  (thunderstorm in vicinity)
KMLB 211653Z 26006KT 10SM VCTS FEW050 SCT065 SCT120 33/26 A2993 RMK AO2 LTG DSNT N AND NW RAB14E43 SLP135 P0002 T03280256

Conditions at: KMLB observed 21 June 2018  16:51 UTC
Temperature: 33.0°C (91°F)
Dewpoint: 26.0°C (79°F) [RH = 67%]
Pressure (altimeter): 29.93 inches Hg (1013.6 mb)
Winds: from the W (270 degrees) at 6 MPH (5 knots; 2.6 m/s)
Visibility: 10 or more miles (16+ km)
Ceiling: at least 12,000 feet AGL
Clouds: few clouds at 5000 feet AGL
scattered clouds at 7000 feet AGL
scattered clouds at 12000 feet AGL
Present Weather: VCTS  (thunderstorm in vicinity)
KMLB 211651Z 27005KT 10SM VCTS FEW050 SCT070 SCT120 33/26 A2993 RMK AO2 LTG DSNT NW RAB14E43 P0002